createdAt,value
2016-08-21T00:00:55.289Z,16.02
2016-08-21T00:01:55.259Z,16.16
2016-08-21T00:02:55.976Z,16.1
2016-08-21T00:03:55.230Z,16.06
2016-08-21T00:04:55.232Z,16.04
2016-08-21T00:05:55.214Z,16.06
2016-08-21T00:06:55.207Z,16.11
2016-08-21T00:07:55.191Z,16.04
2016-08-21T00:08:55.176Z,16.08
2016-08-21T00:09:55.238Z,16.06
2016-08-21T00:10:55.518Z,16.04
2016-08-21T00:11:55.874Z,16.07
2016-08-21T00:12:55.748Z,16.04
2016-08-21T00:13:55.434Z,16.06
2016-08-21T00:14:56.060Z,16.1
2016-08-21T00:15:56.746Z,16.08
2016-08-21T00:16:55.598Z,16.16
2016-08-21T00:17:55.284Z,16.14
2016-08-21T00:18:55.146Z,16.08
2016-08-21T00:19:55.133Z,16.14
2016-08-21T00:20:55.140Z,16.13
2016-08-21T00:21:55.168Z,16.17
2016-08-21T00:22:56.042Z,16.14
2016-08-21T00:23:55.155Z,16.14
2016-08-21T00:24:55.131Z,16.21
2016-08-21T00:25:57.059Z,16.14
2016-08-21T00:27:10.485Z,16.14
2016-08-21T00:27:55.401Z,16.22
2016-08-21T00:28:57.411Z,16.18
2016-08-21T00:29:55.592Z,16.21
2016-08-21T00:30:56.673Z,16.21
2016-08-21T00:31:58.041Z,16.22
2016-08-21T00:32:58.537Z,16.25
2016-08-21T00:33:55.250Z,16.11
2016-08-21T00:34:56.397Z,16.22
2016-08-21T00:35:56.869Z,16.21
2016-08-21T00:36:55.554Z,16.29
2016-08-21T00:37:55.555Z,16.22
2016-08-21T00:38:55.342Z,16.27
2016-08-21T00:39:55.600Z,16.32
2016-08-21T00:40:58.307Z,16.21
2016-08-21T00:41:57.823Z,16.25
2016-08-21T00:42:57.598Z,16.21
2016-08-21T00:43:56.305Z,16.22
2016-08-21T00:44:55.590Z,16.21
2016-08-21T00:46:10.349Z,16.18
2016-08-21T00:46:59.504Z,16.32
2016-08-21T00:47:55.427Z,16.27
2016-08-21T00:48:56.423Z,16.34
2016-08-21T00:49:55.580Z,16.27
2016-08-21T00:50:56.467Z,16.3
2016-08-21T00:51:57.852Z,16.29
2016-08-21T00:53:10.470Z,16.21
2016-08-21T00:53:55.437Z,16.3
2016-08-21T00:54:56.325Z,16.14
2016-08-21T00:55:56.383Z,16.25
2016-08-21T00:56:55.468Z,16.32
2016-08-21T00:57:55.292Z,16.16
2016-08-21T00:58:55.377Z,16.18
2016-08-21T00:59:55.238Z,16.21
2016-08-21T01:00:56.050Z,16.08
2016-08-21T01:01:55.311Z,16.13
2016-08-21T01:02:55.597Z,16.18
2016-08-21T01:03:55.474Z,16.21
2016-08-21T01:04:55.487Z,16.13
2016-08-21T01:05:55.968Z,16.14
2016-08-21T01:06:55.807Z,16.18
2016-08-21T01:07:55.185Z,16.16
2016-08-21T01:08:55.240Z,16.18
2016-08-21T01:09:55.362Z,16.14
2016-08-21T01:10:55.232Z,16.21
2016-08-21T01:11:57.353Z,16.13
2016-08-21T01:12:55.849Z,16.22
2016-08-21T01:13:55.335Z,16.08
2016-08-21T01:14:55.481Z,16.18
2016-08-21T01:15:55.142Z,16.11
2016-08-21T01:16:55.753Z,16.04
2016-08-21T01:17:55.261Z,16.1
2016-08-21T01:18:55.162Z,16.06
2016-08-21T01:19:55.322Z,16.07
2016-08-21T01:20:55.372Z,16.06
2016-08-21T01:21:55.250Z,16.06
2016-08-21T01:22:55.300Z,16.08
2016-08-21T01:23:55.301Z,16.06
2016-08-21T01:24:55.486Z,16.07
2016-08-21T01:25:55.276Z,16.06
2016-08-21T01:26:55.625Z,16.1
2016-08-21T01:27:56.099Z,16.08
2016-08-21T01:28:55.327Z,16.04
2016-08-21T01:29:55.284Z,16.08
2016-08-21T01:30:55.371Z,15.95
2016-08-21T01:31:56.152Z,15.93
2016-08-21T01:32:54.934Z,15.99
2016-08-21T01:33:55.373Z,15.95
2016-08-21T01:34:55.284Z,16.06
2016-08-21T01:35:58.434Z,16.02
2016-08-21T01:36:55.470Z,16.07
2016-08-21T01:37:55.911Z,15.95
2016-08-21T01:38:54.962Z,16.06
2016-08-21T01:39:54.985Z,16
2016-08-21T01:40:55.060Z,16
2016-08-21T01:41:55.305Z,15.98
2016-08-21T01:42:55.197Z,15.93
2016-08-21T01:43:55.114Z,15.99
2016-08-21T01:44:55.045Z,15.99
2016-08-21T01:45:55.942Z,16.06
2016-08-21T01:46:55.217Z,15.95
2016-08-21T01:47:55.045Z,15.96
2016-08-21T01:48:55.269Z,15.96
2016-08-21T01:49:55.058Z,15.98
2016-08-21T01:50:55.055Z,15.93
2016-08-21T01:51:55.077Z,15.92
2016-08-21T01:52:55.099Z,15.84
2016-08-21T01:53:55.347Z,15.91
2016-08-21T01:54:55.376Z,15.84
2016-08-21T01:55:55.385Z,15.88
2016-08-21T01:56:55.222Z,15.81
2016-08-21T01:57:55.091Z,15.74
2016-08-21T01:58:55.414Z,15.74
2016-08-21T01:59:55.166Z,15.77
2016-08-21T02:00:55.097Z,15.71
2016-08-21T02:01:55.132Z,15.68
2016-08-21T02:02:55.060Z,15.59
2016-08-21T02:03:55.483Z,15.65
2016-08-21T02:04:55.135Z,15.65
2016-08-21T02:05:54.961Z,15.62
2016-08-21T02:06:54.930Z,15.59
2016-08-21T02:07:55.019Z,15.63
2016-08-21T02:08:54.961Z,15.58
2016-08-21T02:09:55.164Z,15.53
2016-08-21T02:10:55.150Z,15.56
2016-08-21T02:11:55.117Z,15.49
2016-08-21T02:12:54.970Z,15.52
2016-08-21T02:13:54.921Z,15.51
2016-08-21T02:14:55.093Z,15.53
2016-08-21T02:15:54.947Z,15.44
2016-08-21T02:16:55.011Z,15.52
2016-08-21T02:17:54.910Z,15.51
2016-08-21T02:18:54.934Z,15.44
2016-08-21T02:19:54.900Z,15.4
2016-08-21T02:20:54.919Z,15.45
2016-08-21T02:21:54.794Z,15.45
2016-08-21T02:22:54.874Z,15.45
2016-08-21T02:23:54.929Z,15.41
2016-08-21T02:24:54.891Z,15.35
2016-08-21T02:25:54.894Z,15.41
2016-08-21T02:26:54.902Z,15.31
2016-08-21T02:27:55.977Z,15.47
2016-08-21T02:28:54.896Z,15.37
2016-08-21T02:29:55.937Z,15.35
2016-08-21T02:30:54.876Z,15.34
2016-08-21T02:32:09.725Z,15.31
2016-08-21T02:32:55.783Z,15.35
2016-08-21T02:33:55.043Z,15.35
2016-08-21T02:34:54.855Z,15.31
2016-08-21T02:35:54.864Z,15.3
2016-08-21T02:36:54.868Z,15.25
2016-08-21T02:37:55.020Z,15.33
2016-08-21T02:38:55.719Z,15.31
2016-08-21T02:39:54.971Z,15.2
2016-08-21T02:40:54.908Z,15.35
2016-08-21T02:41:55.076Z,15.26
2016-08-21T02:42:55.039Z,15.26
2016-08-21T02:43:55.690Z,15.23
2016-08-21T02:44:55.739Z,15.23
2016-08-21T02:45:55.647Z,15.23
2016-08-21T02:46:54.926Z,15.22
2016-08-21T02:47:54.818Z,15.25
2016-08-21T02:48:54.941Z,15.23
2016-08-21T02:49:54.809Z,15.25
2016-08-21T02:50:54.716Z,15.25
2016-08-21T02:51:54.718Z,15.19
2016-08-21T02:52:54.724Z,15.23
2016-08-21T02:53:54.722Z,15.23
2016-08-21T02:54:54.662Z,15.1
2016-08-21T02:55:54.693Z,15.13
2016-08-21T02:56:54.674Z,15.08
2016-08-21T02:57:54.661Z,15.08
2016-08-21T02:58:54.670Z,15.16
2016-08-21T02:59:54.677Z,15.08
2016-08-21T03:00:54.687Z,15.1
2016-08-21T03:01:54.717Z,15.13
2016-08-21T03:02:54.774Z,15.07
2016-08-21T03:03:54.703Z,15.16
2016-08-21T03:04:54.726Z,15.12
2016-08-21T03:05:54.727Z,15.1
2016-08-21T03:06:54.622Z,15.16
2016-08-21T03:07:54.633Z,15.08
2016-08-21T03:08:55.612Z,15.13
2016-08-21T03:09:54.640Z,15.02
2016-08-21T03:10:54.634Z,15.1
2016-08-21T03:11:54.693Z,14.98
2016-08-21T03:12:54.655Z,15.12
2016-08-21T03:13:54.662Z,15.05
2016-08-21T03:14:54.653Z,15
2016-08-21T03:15:54.676Z,14.98
2016-08-21T03:16:54.727Z,15.02
2016-08-21T03:17:54.773Z,14.9
2016-08-21T03:18:54.601Z,15.01
2016-08-21T03:19:55.333Z,15
2016-08-21T03:20:54.625Z,14.9
2016-08-21T03:21:54.622Z,14.94
2016-08-21T03:22:55.408Z,14.94
2016-08-21T03:23:54.673Z,14.97
2016-08-21T03:24:54.632Z,14.82
2016-08-21T03:25:54.670Z,14.9
2016-08-21T03:26:54.653Z,14.85
2016-08-21T03:27:54.600Z,14.83
2016-08-21T03:28:54.644Z,14.85
2016-08-21T03:29:55.530Z,14.75
2016-08-21T03:30:54.621Z,14.64
2016-08-21T03:31:54.621Z,14.82
2016-08-21T03:32:54.623Z,14.61
2016-08-21T03:33:54.645Z,14.66
2016-08-21T03:34:54.704Z,14.67
2016-08-21T03:35:54.622Z,14.59
2016-08-21T03:36:54.643Z,14.49
2016-08-21T03:37:54.634Z,14.42
2016-08-21T03:38:54.602Z,14.48
2016-08-21T03:39:54.590Z,14.44
2016-08-21T03:40:54.588Z,14.44
2016-08-21T03:41:54.640Z,14.31
2016-08-21T03:42:54.606Z,14.31
2016-08-21T03:43:54.597Z,14.27
2016-08-21T03:44:54.550Z,14.31
2016-08-21T03:45:54.725Z,14.31
2016-08-21T03:46:54.565Z,14.34
2016-08-21T03:47:54.536Z,14.31
2016-08-21T03:48:54.551Z,14.28
2016-08-21T03:49:54.623Z,14.31
2016-08-21T03:50:54.595Z,14.28
2016-08-21T03:51:55.489Z,14.31
2016-08-21T03:52:54.558Z,14.27
2016-08-21T03:53:54.583Z,14.24
2016-08-21T03:54:54.591Z,14.23
2016-08-21T03:55:54.625Z,14.27
2016-08-21T03:56:55.345Z,14.13
2016-08-21T03:57:54.532Z,14.11
2016-08-21T03:58:54.523Z,14.11
2016-08-21T03:59:54.554Z,14.11
2016-08-21T15:28:54.944Z,17.65
2016-08-21T15:29:53.923Z,17.69
2016-08-21T15:30:53.895Z,17.66
2016-08-21T15:31:53.885Z,17.58
2016-08-21T15:32:53.941Z,17.66
2016-08-21T15:33:54.663Z,17.71
2016-08-21T15:34:53.926Z,17.68
2016-08-21T15:35:54.004Z,17.68
2016-08-21T15:36:53.888Z,17.68
2016-08-21T15:37:54.779Z,17.66
2016-08-21T15:38:53.873Z,17.66
2016-08-21T15:39:53.857Z,17.68
2016-08-21T15:40:53.895Z,17.54
2016-08-21T15:41:53.872Z,17.66
2016-08-21T15:42:53.902Z,17.68
2016-08-21T15:43:53.870Z,17.66
2016-08-21T15:44:53.862Z,17.68
2016-08-21T15:45:53.934Z,17.69
2016-08-21T15:46:53.913Z,17.69
2016-08-21T15:47:53.966Z,17.73
2016-08-21T15:48:53.902Z,17.68
2016-08-21T15:49:53.837Z,17.76
2016-08-21T15:50:53.842Z,17.86
2016-08-21T15:51:53.878Z,17.79
2016-08-21T15:52:53.973Z,17.83
2016-08-21T15:53:53.841Z,17.8
2016-08-21T15:54:53.866Z,17.74
2016-08-21T15:55:53.856Z,17.88
2016-08-21T15:56:53.862Z,17.79
2016-08-21T15:57:53.844Z,17.81
2016-08-21T15:58:53.827Z,17.76
2016-08-21T15:59:53.825Z,17.76
2016-08-21T16:00:54.081Z,17.8
2016-08-21T16:01:53.925Z,17.73
2016-08-21T16:02:54.546Z,17.87
2016-08-21T16:03:53.866Z,17.83
2016-08-21T16:04:54.029Z,17.83
2016-08-21T16:05:53.871Z,17.83
2016-08-21T16:06:53.846Z,17.87
2016-08-21T16:07:53.843Z,17.88
2016-08-21T16:08:53.805Z,17.87
2016-08-21T16:09:53.831Z,17.88
2016-08-21T16:10:53.817Z,17.86
2016-08-21T16:11:53.833Z,17.86
2016-08-21T16:12:53.789Z,17.87
2016-08-21T16:13:53.805Z,17.81
2016-08-21T16:14:53.870Z,17.73
2016-08-21T16:15:53.790Z,17.68
2016-08-21T16:16:53.806Z,17.57
2016-08-21T16:17:53.923Z,17.6
2016-08-21T16:18:53.818Z,17.55
2016-08-21T16:19:53.783Z,17.54
2016-08-21T16:20:53.819Z,17.49
2016-08-21T16:21:53.849Z,17.5
2016-08-21T16:22:53.799Z,17.54
2016-08-21T16:23:53.778Z,17.58
2016-08-21T16:24:53.786Z,17.55
2016-08-21T16:25:53.771Z,17.4
2016-08-21T16:26:53.887Z,17.43
2016-08-21T16:27:53.882Z,17.43
2016-08-21T16:28:53.756Z,17.4
2016-08-21T16:29:53.836Z,17.27
2016-08-21T16:30:53.836Z,17.24
2016-08-21T16:31:53.764Z,17.13
2016-08-21T16:32:53.754Z,17.13
2016-08-21T16:33:53.901Z,17.12
2016-08-21T16:34:53.760Z,17.09
2016-08-21T16:35:53.772Z,17
2016-08-21T16:36:54.473Z,16.99
2016-08-21T16:37:53.745Z,17.02
2016-08-21T16:38:53.749Z,16.94
2016-08-21T16:39:53.722Z,17.02
2016-08-21T16:40:53.735Z,17.03
2016-08-21T16:41:53.717Z,16.94
2016-08-21T16:42:53.764Z,16.97
2016-08-21T16:43:53.734Z,16.94
2016-08-21T16:44:53.746Z,16.95
2016-08-21T16:45:53.825Z,16.94
2016-08-21T16:46:53.789Z,16.97
2016-08-21T16:47:53.934Z,16.95
2016-08-21T16:48:53.754Z,17
2016-08-21T16:49:53.724Z,16.88
2016-08-21T16:50:54.397Z,16.92
2016-08-21T16:51:53.715Z,16.99
2016-08-21T16:52:53.738Z,16.97
2016-08-21T16:53:53.713Z,16.9
2016-08-21T16:54:53.747Z,16.94
2016-08-21T16:55:53.677Z,16.99
2016-08-21T16:56:53.816Z,16.99
2016-08-21T16:57:53.836Z,16.91
2016-08-21T16:58:54.128Z,16.92
2016-08-21T16:59:53.697Z,17.02
2016-08-21T17:00:53.694Z,16.99
2016-08-21T17:01:53.669Z,16.92
2016-08-21T17:02:53.697Z,17.02
2016-08-21T17:03:53.669Z,16.94
2016-08-21T17:04:53.769Z,16.9
2016-08-21T17:05:53.664Z,17
2016-08-21T17:06:53.668Z,16.95
2016-08-21T17:07:53.669Z,16.88
2016-08-21T17:08:53.686Z,16.82
2016-08-21T17:09:53.690Z,16.88
2016-08-21T17:10:53.682Z,16.88
2016-08-21T17:11:53.671Z,16.77
2016-08-21T17:12:53.675Z,16.81
2016-08-21T17:13:53.674Z,16.77
2016-08-21T17:14:53.778Z,16.72
2016-08-21T17:15:53.656Z,16.66
2016-08-21T17:16:53.639Z,16.65
2016-08-21T17:17:53.639Z,16.54
2016-08-21T17:18:53.678Z,16.55
2016-08-21T17:19:53.889Z,16.72
2016-08-21T17:20:54.363Z,16.51
2016-08-21T17:21:53.704Z,16.69
2016-08-21T17:22:53.917Z,16.67
2016-08-21T17:23:53.662Z,16.65
2016-08-21T17:24:53.795Z,16.67
2016-08-21T17:25:53.625Z,16.66
2016-08-21T17:26:53.621Z,16.67
2016-08-21T17:27:53.706Z,16.63
2016-08-21T17:28:53.751Z,16.66
2016-08-21T17:29:53.640Z,16.66
2016-08-21T17:30:53.737Z,16.59
2016-08-21T17:31:54.355Z,16.59
2016-08-21T17:32:53.648Z,16.59
2016-08-21T17:33:53.620Z,16.54
2016-08-21T17:34:53.580Z,16.51
2016-08-21T17:35:53.610Z,16.52
2016-08-21T17:36:53.934Z,16.47
2016-08-21T17:37:53.933Z,16.49
2016-08-21T17:38:53.653Z,16.45
2016-08-21T17:39:53.575Z,16.37
2016-08-21T17:40:53.589Z,16.37
2016-08-21T17:41:53.582Z,16.45
2016-08-21T17:42:53.560Z,16.29
2016-08-21T17:43:53.640Z,16.4
2016-08-21T17:44:53.578Z,16.39
2016-08-21T17:45:53.593Z,16.34
2016-08-21T17:46:53.573Z,16.33
2016-08-21T17:47:53.630Z,16.29
2016-08-21T17:48:53.551Z,16.27
2016-08-21T17:49:53.685Z,16.27
2016-08-21T17:50:53.541Z,16.25
2016-08-21T17:51:53.535Z,16.25
2016-08-21T17:52:53.525Z,16.16
2016-08-21T17:53:53.547Z,16.25
2016-08-21T17:54:53.512Z,16.17
2016-08-21T17:55:53.537Z,16.08
2016-08-21T17:56:53.546Z,16.06
2016-08-21T17:57:53.545Z,15.99
2016-08-21T17:58:53.572Z,15.96
2016-08-21T17:59:53.578Z,15.95
2016-08-21T18:00:53.585Z,15.89
2016-08-21T18:01:53.649Z,15.91
2016-08-21T18:02:54.365Z,15.88
2016-08-21T18:03:53.683Z,15.75
2016-08-21T18:04:53.656Z,15.7
2016-08-21T18:05:53.520Z,15.74
2016-08-21T18:06:53.520Z,15.59
2016-08-21T18:07:53.553Z,15.63
2016-08-21T18:08:53.524Z,15.52
2016-08-21T18:09:53.550Z,15.55
2016-08-21T18:10:53.654Z,15.53
2016-08-21T18:11:53.571Z,15.49
2016-08-21T18:12:53.581Z,15.4
2016-08-21T18:13:53.551Z,15.4
2016-08-21T18:14:53.528Z,15.37
2016-08-21T18:15:53.479Z,15.33
2016-08-21T18:16:53.471Z,15.34
2016-08-21T18:17:53.548Z,15.31
2016-08-21T18:18:53.501Z,15.23
2016-08-21T18:19:53.509Z,15.26
2016-08-21T18:20:53.514Z,15.25
2016-08-21T18:21:53.569Z,15.15
2016-08-21T18:22:53.515Z,15.23
2016-08-21T18:23:53.521Z,15.22
2016-08-21T18:24:53.498Z,15.15
2016-08-21T18:25:53.661Z,15.08
2016-08-21T18:26:53.481Z,15.19
2016-08-21T18:27:53.460Z,15.1
2016-08-21T18:28:53.461Z,15.01
2016-08-21T18:29:53.473Z,15.07
2016-08-21T18:30:53.467Z,15.01
2016-08-21T18:31:53.484Z,15.02
2016-08-21T18:32:53.608Z,15.02
2016-08-21T18:33:53.447Z,15
2016-08-21T18:34:53.444Z,14.89
2016-08-21T18:35:53.458Z,14.94
2016-08-21T18:36:53.460Z,14.82
2016-08-21T18:37:53.476Z,14.8
2016-08-21T18:38:53.473Z,14.86
2016-08-21T18:39:53.446Z,14.83
2016-08-21T18:40:53.455Z,14.82
2016-08-21T18:41:53.441Z,14.77
2016-08-21T18:42:53.400Z,14.67
2016-08-21T18:43:53.434Z,14.7
2016-08-21T18:44:53.432Z,14.66
2016-08-21T18:45:53.423Z,14.64
2016-08-21T18:46:53.429Z,14.66
2016-08-21T18:47:53.440Z,14.67
2016-08-21T18:48:53.457Z,14.63
2016-08-21T18:49:53.455Z,14.57
2016-08-21T18:50:54.010Z,14.49
2016-08-21T18:51:53.467Z,14.51
2016-08-21T18:52:53.374Z,14.48
2016-08-21T18:53:53.373Z,14.52
2016-08-21T18:54:53.550Z,14.49
2016-08-21T18:55:53.487Z,14.51
2016-08-21T18:56:53.385Z,14.42
2016-08-21T18:57:53.409Z,14.41
2016-08-21T18:58:53.459Z,14.41
2016-08-21T18:59:53.435Z,14.41
2016-08-21T19:00:53.440Z,14.39
2016-08-21T19:01:53.443Z,14.3
2016-08-21T19:02:53.458Z,14.26
2016-08-21T19:03:53.457Z,14.19
2016-08-21T19:04:53.374Z,14.21
2016-08-21T19:05:53.384Z,14.2
2016-08-21T19:06:53.356Z,14.09
2016-08-21T19:07:53.393Z,14.12
2016-08-21T19:08:53.401Z,14.11
2016-08-21T19:09:53.402Z,14.06
2016-08-21T19:10:54.105Z,14.05
2016-08-21T19:11:53.407Z,14.08
2016-08-21T19:12:53.368Z,14.01
2016-08-21T19:13:53.573Z,14.05
2016-08-21T19:14:53.395Z,13.95
2016-08-21T19:15:53.372Z,14.01
2016-08-21T19:16:53.387Z,13.91
2016-08-21T19:17:53.370Z,14.01
2016-08-21T19:18:54.075Z,13.91
2016-08-21T19:19:53.361Z,13.93
2016-08-21T19:20:53.392Z,13.93
2016-08-21T19:21:53.395Z,13.94
2016-08-21T19:22:53.344Z,13.9
2016-08-21T19:23:53.352Z,13.84
2016-08-21T19:24:53.370Z,13.81
2016-08-21T19:25:54.199Z,13.9
2016-08-21T19:26:54.277Z,13.76
2016-08-21T19:27:53.364Z,13.83
2016-08-21T19:28:53.354Z,13.69
2016-08-21T19:29:53.266Z,13.68
2016-08-21T19:30:53.297Z,13.7
2016-08-21T19:31:53.296Z,13.73
2016-08-21T19:32:53.318Z,13.6
2016-08-21T19:33:53.330Z,13.73
2016-08-21T19:34:53.347Z,13.66
2016-08-21T19:35:53.342Z,13.6
2016-08-21T19:36:53.348Z,13.6
2016-08-21T19:37:53.286Z,13.69
2016-08-21T19:38:53.362Z,13.62
2016-08-21T19:39:54.093Z,13.6
2016-08-21T19:40:53.373Z,13.6
2016-08-21T19:41:53.276Z,13.51
2016-08-21T19:42:53.276Z,13.54
2016-08-21T19:43:53.322Z,13.54
2016-08-21T19:44:53.309Z,13.55
2016-08-21T19:45:53.293Z,13.55
2016-08-21T19:46:53.321Z,13.53
2016-08-21T19:47:54.001Z,13.55
2016-08-21T19:48:53.320Z,13.57
2016-08-21T19:49:53.344Z,13.68
2016-08-21T19:50:53.308Z,13.55
2016-08-21T19:51:53.315Z,13.66
2016-08-21T19:52:53.191Z,13.76
2016-08-21T19:53:53.335Z,13.69
2016-08-21T19:54:53.360Z,13.69
2016-08-21T19:55:53.263Z,13.81
2016-08-21T19:56:53.286Z,13.84
2016-08-21T19:57:53.327Z,13.86
2016-08-21T19:58:53.331Z,13.91
2016-08-21T19:59:54.142Z,13.9
2016-08-21T20:00:53.470Z,13.94
2016-08-21T20:01:53.365Z,13.94
2016-08-21T20:02:53.364Z,13.95
2016-08-21T20:03:55.033Z,13.97
2016-08-21T20:04:53.242Z,14.08
2016-08-21T20:05:53.110Z,14.05
2016-08-21T20:06:53.266Z,14.05
2016-08-21T20:07:53.225Z,14.08
2016-08-21T20:08:53.252Z,14.12
2016-08-21T20:09:53.115Z,14.08
2016-08-21T20:10:53.271Z,14.06
2016-08-21T20:11:53.249Z,14.11
2016-08-21T20:12:53.141Z,14.13
2016-08-21T20:13:53.141Z,14.09
2016-08-21T20:14:53.841Z,14.24
2016-08-21T20:15:53.141Z,14.11
2016-08-21T20:16:53.451Z,14.09
2016-08-21T20:17:53.362Z,14.23
2016-08-21T20:18:53.095Z,14.23
2016-08-21T20:19:53.072Z,14.09
2016-08-21T20:20:53.092Z,14.21
2016-08-21T20:21:53.139Z,14.2
2016-08-21T20:22:53.400Z,14.13
2016-08-21T20:23:53.105Z,14.16
2016-08-21T20:24:53.103Z,14.23
2016-08-21T20:25:53.113Z,14.15
2016-08-21T20:26:53.352Z,14.15
2016-08-21T20:27:54.705Z,14.21
2016-08-21T20:28:53.235Z,14.13
2016-08-21T20:29:53.360Z,14.19
2016-08-21T20:30:53.471Z,14.06
2016-08-21T20:31:53.058Z,14.05
2016-08-21T20:32:53.060Z,14.09
2016-08-21T20:33:52.942Z,14.06
2016-08-21T20:34:53.056Z,13.99
2016-08-21T20:35:52.971Z,14.02
2016-08-21T20:36:52.925Z,14.02
2016-08-21T20:37:53.727Z,13.95
2016-08-21T20:38:52.907Z,13.91
2016-08-21T20:39:52.909Z,13.79
2016-08-21T20:40:52.924Z,13.84
2016-08-21T20:41:52.904Z,13.78
2016-08-21T20:42:52.897Z,13.72
2016-08-21T20:43:52.912Z,13.72
2016-08-21T20:44:52.900Z,13.69
2016-08-21T20:45:52.756Z,13.6
2016-08-21T20:46:52.757Z,13.7
2016-08-21T20:47:52.762Z,13.65
2016-08-21T20:48:53.501Z,13.58
2016-08-21T20:49:52.759Z,13.63
2016-08-21T20:50:54.129Z,13.63
2016-08-21T20:51:52.749Z,13.63
2016-08-21T20:52:52.719Z,13.62
2016-08-21T20:53:52.721Z,13.57
2016-08-21T20:54:52.720Z,13.54
2016-08-21T20:55:52.698Z,13.58
2016-08-21T20:56:52.730Z,13.66
2016-08-21T20:57:53.915Z,13.6
2016-08-21T20:58:53.156Z,13.68
2016-08-21T20:59:52.698Z,13.73
2016-08-21T21:00:53.850Z,13.68
2016-08-21T21:01:53.994Z,13.65
2016-08-21T21:02:53.704Z,13.75
2016-08-21T21:03:53.002Z,13.68
2016-08-21T21:04:52.929Z,13.73
2016-08-21T21:05:52.657Z,13.79
2016-08-21T21:06:52.661Z,13.78
2016-08-21T21:07:52.662Z,13.78
2016-08-21T21:08:52.650Z,13.76
2016-08-21T21:09:52.659Z,13.7
2016-08-21T21:10:52.643Z,13.78
2016-08-21T21:12:07.650Z,13.81
2016-08-21T21:12:52.783Z,13.81
2016-08-21T21:13:53.352Z,13.78
2016-08-21T21:14:52.905Z,13.76
2016-08-21T21:15:52.935Z,13.81
2016-08-21T21:16:53.846Z,13.81
2016-08-21T21:17:52.910Z,13.78
2016-08-21T21:18:52.662Z,13.84
2016-08-21T21:19:52.678Z,13.81
2016-08-21T21:20:52.792Z,13.84
2016-08-21T21:21:52.727Z,13.86
2016-08-21T21:22:52.590Z,13.83
2016-08-21T21:23:52.591Z,13.84
2016-08-21T21:24:52.569Z,13.93
2016-08-21T21:25:53.366Z,13.86
2016-08-21T21:26:52.609Z,13.79
2016-08-21T21:27:52.609Z,13.95
2016-08-21T21:28:52.759Z,13.95
2016-08-21T21:29:52.733Z,13.97
2016-08-21T21:30:52.694Z,13.99
2016-08-21T21:31:52.604Z,14.01
2016-08-21T21:32:52.691Z,14.01
2016-08-21T21:33:52.901Z,13.91
2016-08-21T21:34:54.369Z,13.94
2016-08-21T21:35:52.504Z,14.08
2016-08-21T21:36:52.502Z,14.05
2016-08-21T21:37:52.494Z,14.05
2016-08-21T21:38:52.487Z,14.02
2016-08-21T21:39:52.509Z,14.06
2016-08-21T21:40:52.477Z,14.08
2016-08-21T21:41:52.479Z,14.06
2016-08-21T21:42:52.465Z,14.06
2016-08-21T21:43:52.489Z,14.06
2016-08-21T21:44:52.457Z,14.06
2016-08-21T21:45:52.445Z,14.06
2016-08-21T21:46:52.500Z,14.09
2016-08-21T21:47:52.454Z,14.05
2016-08-21T21:48:52.475Z,14.09
2016-08-21T21:49:53.261Z,14.09
2016-08-21T21:50:52.437Z,14.09
2016-08-21T21:51:52.435Z,14.08
2016-08-21T21:52:54.205Z,14.05
2016-08-21T21:53:53.625Z,14.06
2016-08-21T21:54:53.315Z,14.05
2016-08-21T21:55:53.387Z,14.11
2016-08-21T21:56:52.415Z,14.11
2016-08-21T21:57:52.413Z,14.09
2016-08-21T21:58:52.403Z,14.08
2016-08-21T21:59:52.423Z,14.16
2016-08-21T22:00:52.379Z,14.19
2016-08-21T22:01:52.391Z,14.06
2016-08-21T22:02:52.408Z,14.12
2016-08-21T22:03:52.436Z,14.09
2016-08-21T22:04:52.371Z,14.2
2016-08-21T22:05:52.376Z,14.08
2016-08-21T22:06:52.360Z,14.05
2016-08-21T22:07:52.343Z,14.09
2016-08-21T22:08:52.343Z,14.06
2016-08-21T22:09:52.345Z,14.12
2016-08-21T22:10:52.617Z,14.12
2016-08-21T22:11:52.344Z,14.08
2016-08-21T22:12:52.340Z,14.06
2016-08-21T22:13:52.356Z,14.09
2016-08-21T22:14:52.358Z,14.08
2016-08-21T22:15:52.540Z,14.09
2016-08-21T22:16:53.401Z,14.09
2016-08-21T22:17:53.445Z,14.09
2016-08-21T22:18:52.672Z,14.11
2016-08-21T22:19:52.444Z,14.09
2016-08-21T22:20:52.464Z,14.09
2016-08-21T22:21:52.428Z,14.11
2016-08-21T22:22:54.308Z,14.06
2016-08-21T22:23:52.266Z,14.06
2016-08-21T22:24:52.302Z,14.08
2016-08-21T22:25:52.297Z,13.97
2016-08-21T22:26:53.231Z,13.95
2016-08-21T22:27:53.575Z,13.99
2016-08-21T22:28:52.405Z,13.95
2016-08-21T22:29:53.347Z,13.91
2016-08-21T22:30:52.863Z,13.9
2016-08-21T22:32:07.944Z,13.79
2016-08-21T22:32:52.442Z,13.87
2016-08-21T22:33:52.373Z,13.81
2016-08-21T22:34:52.235Z,13.69
2016-08-21T22:35:52.219Z,13.68
2016-08-21T22:36:52.222Z,13.6
2016-08-21T22:37:52.201Z,13.53
2016-08-21T22:38:53.138Z,13.62
2016-08-21T22:39:52.202Z,13.51
2016-08-21T22:40:52.200Z,13.5
2016-08-21T22:41:52.199Z,13.48
2016-08-21T22:42:52.163Z,13.53
2016-08-21T22:43:52.179Z,13.45
2016-08-21T22:44:52.175Z,13.44
2016-08-21T22:45:52.166Z,13.29
2016-08-21T22:46:52.145Z,13.29
2016-08-21T22:47:52.184Z,13.25
2016-08-21T22:48:52.189Z,13.32
2016-08-21T22:49:52.206Z,13.24
2016-08-21T22:50:52.165Z,13.2
2016-08-21T22:51:52.152Z,13.21
2016-08-21T22:52:52.158Z,13.17
2016-08-21T22:53:52.205Z,13.19
2016-08-21T22:54:52.294Z,13.25
2016-08-21T22:55:52.110Z,13.21
2016-08-21T22:56:52.132Z,13.21
2016-08-21T22:57:52.135Z,13.27
2016-08-21T22:58:52.123Z,13.2
2016-08-21T22:59:52.112Z,13.09
2016-08-21T23:00:52.089Z,13.09
2016-08-21T23:01:52.093Z,13.09
2016-08-21T23:02:52.145Z,13.13
2016-08-21T23:03:52.141Z,13.16
2016-08-21T23:04:53.042Z,13.1
2016-08-21T23:05:52.049Z,13.09
2016-08-21T23:06:52.053Z,13.13
2016-08-21T23:07:52.069Z,13.07
2016-08-21T23:08:52.065Z,12.94
2016-08-21T23:09:52.053Z,13.01
2016-08-21T23:10:52.032Z,13.01
2016-08-21T23:11:52.039Z,13.02
2016-08-21T23:12:52.004Z,12.96
2016-08-21T23:13:52.035Z,12.96
2016-08-21T23:14:52.390Z,12.96
2016-08-21T23:15:52.126Z,13.01
2016-08-21T23:16:52.008Z,12.92
2016-08-21T23:17:51.981Z,12.91
2016-08-21T23:18:52.163Z,12.95
2016-08-21T23:19:52.869Z,12.94
2016-08-21T23:20:51.982Z,12.91
2016-08-21T23:21:51.977Z,12.88
2016-08-21T23:22:51.971Z,12.91
2016-08-21T23:23:51.981Z,12.92
2016-08-21T23:24:51.968Z,12.86
2016-08-21T23:25:52.040Z,12.88
2016-08-21T23:26:51.999Z,12.92
2016-08-21T23:27:52.184Z,12.92
2016-08-21T23:28:52.375Z,12.92
2016-08-21T23:29:52.119Z,12.94
2016-08-21T23:30:51.915Z,12.95
2016-08-21T23:31:52.887Z,12.92
2016-08-21T23:32:52.090Z,12.92
2016-08-21T23:33:52.109Z,12.96
2016-08-21T23:34:52.077Z,12.96
2016-08-21T23:35:52.116Z,12.98
2016-08-21T23:36:51.913Z,12.92
2016-08-21T23:37:51.914Z,12.94
2016-08-21T23:38:51.877Z,12.96
2016-08-21T23:39:51.873Z,12.94
2016-08-21T23:40:51.977Z,12.92
2016-08-21T23:41:51.980Z,12.92
2016-08-21T23:42:51.875Z,12.94
2016-08-21T23:43:51.868Z,12.95
2016-08-21T23:44:51.865Z,12.91
2016-08-21T23:45:52.050Z,13.1
2016-08-21T23:46:51.989Z,13.1
2016-08-21T23:47:51.965Z,13.13
2016-08-21T23:48:51.823Z,13.13
2016-08-21T23:49:51.841Z,13.11
2016-08-21T23:50:51.816Z,13.19
2016-08-21T23:51:51.791Z,13.25
2016-08-21T23:52:51.791Z,13.17
2016-08-21T23:53:51.787Z,13.29
2016-08-21T23:54:51.792Z,13.17
2016-08-21T23:55:51.783Z,13.28
2016-08-21T23:56:51.821Z,13.24
2016-08-21T23:57:52.024Z,13.25
2016-08-21T23:58:52.843Z,13.25
2016-08-21T23:59:51.954Z,13.31
